createdAt,value
2023-09-17T00:01:39.487Z,97760.38
2023-09-17T00:04:08.035Z,97753.19
2023-09-17T00:06:36.480Z,97752.44
2023-09-17T00:09:04.697Z,97751.72
2023-09-17T00:11:31.497Z,97744.38
2023-09-17T00:14:00.328Z,97753.78
2023-09-17T00:16:32.853Z,97758.41
2023-09-17T00:18:59.770Z,97762.19
2023-09-17T00:21:34.181Z,97751.16
2023-09-17T00:24:00.695Z,97745.94
2023-09-17T00:26:27.230Z,97758.78
2023-09-17T00:28:53.902Z,97760.69
2023-09-17T00:31:20.594Z,97757.09
2023-09-17T00:33:49.387Z,97757.41
2023-09-17T00:36:17.887Z,97757.94
2023-09-17T00:38:44.430Z,97768.91
2023-09-17T00:41:10.951Z,97765.38
2023-09-17T00:43:44.257Z,97763.38
2023-09-17T00:46:14.395Z,97765.00
2023-09-17T00:48:43.716Z,97759.28
2023-09-17T00:51:12.296Z,97757.25
2023-09-17T00:53:41.395Z,97745.59
2023-09-17T00:56:09.368Z,97742.66
2023-09-17T00:58:39.534Z,97750.97
2023-09-17T01:01:07.493Z,97753.28
2023-09-17T01:03:34.342Z,97753.34
2023-09-17T01:06:03.409Z,97756.09
2023-09-17T01:08:32.650Z,97755.94
2023-09-17T01:10:59.873Z,97746.47
2023-09-17T01:13:27.489Z,97756.78
2023-09-17T01:15:54.198Z,97755.06
2023-09-17T01:18:23.236Z,97757.97
2023-09-17T01:21:09.857Z,97753.16
2023-09-17T01:24:02.470Z,97753.56
2023-09-17T01:26:31.523Z,97748.47
2023-09-17T01:29:00.431Z,97747.44
2023-09-17T01:31:28.444Z,97764.31
2023-09-17T01:34:01.832Z,97767.06
2023-09-17T01:36:36.526Z,97768.03
2023-09-17T01:39:16.358Z,97767.94
2023-09-17T01:41:45.768Z,97760.16
2023-09-17T01:44:15.294Z,97761.09
2023-09-17T01:46:43.002Z,97766.56
2023-09-17T01:49:13.800Z,97767.94
2023-09-17T01:51:41.371Z,97769.97
2023-09-17T01:54:08.303Z,97771.50
2023-09-17T01:56:38.451Z,97771.97
2023-09-17T01:59:08.033Z,97765.03
2023-09-17T02:01:34.819Z,97763.56
2023-09-17T02:04:01.395Z,97773.41
2023-09-17T02:06:28.714Z,97770.72
2023-09-17T02:09:00.166Z,97771.53
2023-09-17T02:11:26.860Z,97772.84
2023-09-17T02:13:53.987Z,97777.63
2023-09-17T02:16:22.380Z,97776.78
2023-09-17T02:18:49.044Z,97773.41
2023-09-17T02:21:15.778Z,97772.00
2023-09-17T02:23:42.419Z,97770.16
2023-09-17T02:26:09.583Z,97767.84
2023-09-17T02:28:36.163Z,97773.97
2023-09-17T02:31:09.880Z,97771.94
2023-09-17T02:33:36.446Z,97762.13
2023-09-17T02:36:04.487Z,97763.75
2023-09-17T02:38:32.854Z,97752.53
2023-09-17T02:40:59.824Z,97749.09
2023-09-17T02:43:29.902Z,97751.88
2023-09-17T02:46:00.042Z,97748.09
2023-09-17T02:48:26.661Z,97743.38
2023-09-17T02:50:55.873Z,97747.25
2023-09-17T02:53:27.098Z,97748.28
2023-09-17T02:55:55.052Z,97742.69
2023-09-17T02:58:21.987Z,97743.41
2023-09-17T03:00:50.413Z,97749.56
2023-09-17T03:03:17.304Z,97750.38
2023-09-17T03:05:48.233Z,97749.56
2023-09-17T03:08:16.251Z,97752.72
2023-09-17T03:10:45.655Z,97747.22
2023-09-17T03:13:13.928Z,97749.72
2023-09-17T03:15:41.448Z,97745.97
2023-09-17T03:18:08.041Z,97749.09
2023-09-17T03:20:34.979Z,97742.13
2023-09-17T03:23:07.556Z,97739.75
2023-09-17T03:25:34.415Z,97733.44
2023-09-17T03:28:01.007Z,97738.78
2023-09-17T03:30:28.722Z,97735.72
2023-09-17T03:33:04.457Z,97737.94
2023-09-17T03:35:37.448Z,97746.50
2023-09-17T03:38:04.163Z,97743.34
2023-09-17T03:40:30.840Z,97732.84
2023-09-17T03:43:08.005Z,97734.00
2023-09-17T03:45:35.550Z,97745.28
2023-09-17T03:48:02.241Z,97741.38
2023-09-17T03:50:31.369Z,97745.66
2023-09-17T03:52:59.970Z,97749.28
2023-09-17T03:55:26.847Z,97752.09
2023-09-17T03:57:58.460Z,97746.63
2023-09-17T04:00:25.276Z,97750.56
2023-09-17T04:02:53.939Z,97741.22
2023-09-17T04:05:24.382Z,97750.59
2023-09-17T04:07:53.346Z,97748.78
2023-09-17T04:10:21.067Z,97746.06
2023-09-17T04:12:48.511Z,97745.56
2023-09-17T04:15:22.075Z,97749.47
2023-09-17T04:17:54.326Z,97747.88
2023-09-17T04:20:21.236Z,97751.72
2023-09-17T04:22:50.397Z,97749.47
2023-09-17T04:25:20.107Z,97756.72
2023-09-17T04:27:48.140Z,97764.25
2023-09-17T04:30:16.505Z,97771.72
2023-09-17T04:32:46.422Z,97777.19
2023-09-17T04:35:17.073Z,97779.09
2023-09-17T04:37:45.477Z,97778.38
2023-09-17T04:40:20.851Z,97781.94
2023-09-17T04:42:48.275Z,97780.75
2023-09-17T04:45:33.146Z,97786.97
2023-09-17T04:47:59.771Z,97776.44
2023-09-17T04:50:28.712Z,97784.66
2023-09-17T04:52:56.384Z,97780.16
2023-09-17T04:55:23.194Z,97780.22
2023-09-17T04:57:49.720Z,97767.69
2023-09-17T05:00:16.862Z,97762.34
2023-09-17T05:02:43.688Z,97761.22
2023-09-17T05:05:11.530Z,97764.72
2023-09-17T05:07:41.555Z,97763.53
2023-09-17T05:10:09.011Z,97765.44
2023-09-17T05:12:35.998Z,97770.78
2023-09-17T05:15:02.751Z,97770.72
2023-09-17T05:17:29.333Z,97773.69
2023-09-17T05:19:55.985Z,97779.03
2023-09-17T05:22:26.672Z,97778.16
2023-09-17T05:24:53.267Z,97770.16
2023-09-17T05:27:20.439Z,97766.09
2023-09-17T05:29:49.509Z,97770.72
2023-09-17T05:32:17.020Z,97762.06
2023-09-17T05:34:46.125Z,97765.84
2023-09-17T05:37:15.436Z,97767.25
2023-09-17T05:39:41.952Z,97771.00
2023-09-17T05:42:08.969Z,97763.78
2023-09-17T05:44:40.000Z,97769.78
2023-09-17T05:47:06.571Z,97763.00
2023-09-17T05:49:33.185Z,97764.44
2023-09-17T05:52:00.459Z,97764.72
2023-09-17T05:54:27.078Z,97772.44
2023-09-17T05:56:54.136Z,97775.34
2023-09-17T05:59:22.711Z,97775.88
2023-09-17T06:01:49.476Z,97778.81
2023-09-17T06:04:16.026Z,97778.16
2023-09-17T06:06:42.617Z,97769.63
2023-09-17T06:09:10.239Z,97772.47
2023-09-17T06:11:36.995Z,97772.84
2023-09-17T06:14:04.098Z,97761.03
2023-09-17T06:16:42.414Z,97772.84
2023-09-17T06:19:17.163Z,97777.41
2023-09-17T06:21:44.999Z,97785.16
2023-09-17T06:24:12.055Z,97783.06
2023-09-17T06:26:38.602Z,97785.72
2023-09-17T06:29:05.138Z,97789.78
2023-09-17T06:31:32.140Z,97789.38
2023-09-17T06:34:02.051Z,97789.38
2023-09-17T06:36:29.512Z,97799.06
2023-09-17T06:38:56.543Z,97794.19
2023-09-17T06:41:23.186Z,97790.25
2023-09-17T06:43:50.101Z,97796.06
2023-09-17T06:46:17.464Z,97803.25
2023-09-17T06:48:45.271Z,97801.13
2023-09-17T06:51:11.814Z,97799.63
2023-09-17T06:53:38.364Z,97791.69
2023-09-17T06:56:05.079Z,97789.19
2023-09-17T06:58:34.347Z,97799.75
2023-09-17T07:01:01.266Z,97790.59
2023-09-17T07:03:29.604Z,97789.06
2023-09-17T07:05:56.142Z,97789.63
2023-09-17T07:08:22.826Z,97778.38
2023-09-17T07:10:49.462Z,97786.22
2023-09-17T07:13:16.045Z,97784.44
2023-09-17T07:15:42.634Z,97776.53
2023-09-17T07:18:09.508Z,97774.59
2023-09-17T07:20:37.519Z,97775.78
2023-09-17T07:23:09.204Z,97773.16
2023-09-17T07:25:36.287Z,97770.34
2023-09-17T07:28:08.403Z,97771.41
2023-09-17T07:30:39.978Z,97774.81
2023-09-17T07:33:07.292Z,97783.59
2023-09-17T07:35:40.110Z,97785.13
2023-09-17T07:38:08.531Z,97792.19
2023-09-17T07:40:35.336Z,97782.84
2023-09-17T07:43:02.516Z,97797.06
2023-09-17T07:45:29.409Z,97784.50
2023-09-17T07:47:56.709Z,97782.31
2023-09-17T07:50:23.407Z,97792.84
2023-09-17T07:52:51.760Z,97790.28
2023-09-17T07:55:20.074Z,97794.16
2023-09-17T07:57:47.439Z,97795.69
2023-09-17T08:00:21.429Z,97792.38
2023-09-17T08:02:48.304Z,97801.97
2023-09-17T08:05:15.146Z,97786.50
2023-09-17T08:07:42.288Z,97775.06
2023-09-17T08:10:09.451Z,97783.38
2023-09-17T08:12:36.598Z,97778.78
2023-09-17T08:15:03.584Z,97783.19
2023-09-17T08:17:30.289Z,97783.25
2023-09-17T08:19:58.333Z,97784.78
2023-09-17T08:22:28.295Z,97784.19
2023-09-17T08:24:57.336Z,97784.81
2023-09-17T08:27:23.909Z,97769.34
2023-09-17T08:29:52.288Z,97779.00
2023-09-17T08:32:19.384Z,97784.06
2023-09-17T08:34:45.957Z,97787.28
2023-09-17T08:37:19.251Z,97790.69
2023-09-17T08:39:45.775Z,97788.41
2023-09-17T08:42:12.890Z,97777.06
2023-09-17T08:44:40.410Z,97777.53
2023-09-17T08:47:06.982Z,97775.72
2023-09-17T08:49:33.742Z,97779.97
2023-09-17T08:52:07.401Z,97776.31
2023-09-17T08:54:42.868Z,97777.84
2023-09-17T08:57:15.336Z,97777.22
2023-09-17T08:59:50.286Z,97778.16
2023-09-17T09:02:26.919Z,97772.19
2023-09-17T09:04:56.455Z,97769.09
2023-09-17T09:07:23.818Z,97758.81
2023-09-17T09:09:54.350Z,97752.38
2023-09-17T09:12:21.798Z,97763.13
2023-09-17T09:14:49.022Z,97751.13
2023-09-17T09:17:22.051Z,97754.97
2023-09-17T09:19:48.758Z,97755.44
2023-09-17T09:22:15.354Z,97756.53
2023-09-17T09:24:49.365Z,97747.91
2023-09-17T09:27:16.645Z,97743.00
2023-09-17T09:29:46.165Z,97737.66
2023-09-17T09:32:14.087Z,97742.72
2023-09-17T09:34:44.655Z,97743.47
2023-09-17T09:37:11.600Z,97742.09
2023-09-17T09:39:46.400Z,97746.69
2023-09-17T09:42:14.576Z,97740.53
2023-09-17T09:44:41.437Z,97738.53
2023-09-17T09:47:14.307Z,97738.78
2023-09-17T09:49:44.617Z,97736.94
2023-09-17T09:52:17.141Z,97731.72
2023-09-17T09:54:47.600Z,97739.03
2023-09-17T09:57:16.966Z,97735.34
2023-09-17T09:59:46.418Z,97734.09
2023-09-17T10:02:15.069Z,97728.81
2023-09-17T10:04:45.514Z,97723.53
2023-09-17T10:07:12.411Z,97721.00
2023-09-17T10:09:41.537Z,97724.94
2023-09-17T10:12:08.478Z,97723.84
2023-09-17T10:14:38.344Z,97716.34
2023-09-17T10:17:08.566Z,97725.22
2023-09-17T10:19:38.026Z,97721.94
2023-09-17T10:22:08.704Z,97718.91
2023-09-17T10:24:37.982Z,97717.28
2023-09-17T10:27:08.055Z,97719.31
2023-09-17T10:29:36.818Z,97713.16
2023-09-17T10:32:05.139Z,97708.22
2023-09-17T10:34:40.302Z,97700.66
2023-09-17T10:37:09.832Z,97702.19
2023-09-17T10:39:37.827Z,97698.06
2023-09-17T10:42:07.401Z,97695.50
2023-09-17T10:44:38.242Z,97691.75
2023-09-17T10:47:12.794Z,97677.91
2023-09-17T10:49:42.479Z,97681.03
2023-09-17T10:52:12.966Z,97681.41
2023-09-17T10:54:39.610Z,97679.53
2023-09-17T10:57:17.532Z,97682.28
2023-09-17T10:59:48.638Z,97675.25
2023-09-17T11:02:17.515Z,97678.41
2023-09-17T11:04:47.817Z,97675.34
2023-09-17T11:07:15.703Z,97667.88
2023-09-17T11:09:43.286Z,97672.47
2023-09-17T11:12:10.241Z,97671.19
2023-09-17T11:14:36.857Z,97655.38
2023-09-17T11:17:05.886Z,97658.00
2023-09-17T11:19:32.777Z,97666.88
2023-09-17T11:22:03.098Z,97661.06
2023-09-17T11:24:33.474Z,97661.25
2023-09-17T11:27:05.513Z,97654.84
2023-09-17T11:29:45.485Z,97657.81
2023-09-17T11:32:21.855Z,97659.16
2023-09-17T11:34:49.166Z,97652.31
2023-09-17T11:37:16.881Z,97655.47
2023-09-17T11:39:54.807Z,97657.19
2023-09-17T11:42:24.253Z,97654.69
2023-09-17T11:44:53.707Z,97657.75
2023-09-17T11:47:26.630Z,97655.94
2023-09-17T11:49:53.639Z,97651.91
2023-09-17T11:52:20.326Z,97653.66
2023-09-17T11:55:15.469Z,97648.88
2023-09-17T11:57:42.109Z,97644.47
2023-09-17T12:00:12.697Z,97647.56
2023-09-17T12:02:47.181Z,97636.16
2023-09-17T12:05:14.788Z,97625.84
2023-09-17T12:07:54.411Z,97614.56
2023-09-17T12:10:29.826Z,97620.84
2023-09-17T12:12:57.129Z,97615.03
2023-09-17T12:15:23.690Z,97618.38
2023-09-17T12:17:56.817Z,97616.34
2023-09-17T12:20:58.362Z,97614.13
2023-09-17T12:23:43.305Z,97613.69
2023-09-17T12:26:09.876Z,97609.41
2023-09-17T12:28:37.092Z,97603.16
2023-09-17T12:31:04.242Z,97611.00
2023-09-17T12:33:31.261Z,97593.38
2023-09-17T12:35:57.953Z,97598.47
2023-09-17T12:38:24.614Z,97594.25
2023-09-17T12:40:54.209Z,97599.38
2023-09-17T12:43:20.817Z,97589.84
2023-09-17T12:45:51.043Z,97586.66
2023-09-17T12:48:19.545Z,97591.00
2023-09-17T12:50:47.040Z,97586.69
2023-09-17T12:53:16.057Z,97584.66
2023-09-17T12:55:45.045Z,97578.31
2023-09-17T12:58:11.889Z,97583.88
2023-09-17T13:00:38.553Z,97574.28
2023-09-17T13:03:23.165Z,97572.00
2023-09-17T13:05:58.517Z,97562.94
2023-09-17T13:08:26.493Z,97567.78
2023-09-17T13:10:57.564Z,97560.81
2023-09-17T13:13:26.639Z,97552.00
2023-09-17T13:15:53.307Z,97553.78
2023-09-17T13:18:19.974Z,97557.09
2023-09-17T13:20:48.755Z,97550.03
2023-09-17T13:23:15.551Z,97547.78
2023-09-17T13:25:42.161Z,97544.28
2023-09-17T13:28:17.612Z,97533.41
2023-09-17T13:30:44.604Z,97560.97
2023-09-17T13:33:14.614Z,97541.50
2023-09-17T13:35:55.117Z,97540.22
2023-09-17T13:38:22.189Z,97540.72
2023-09-17T13:40:50.816Z,97536.72
2023-09-17T13:43:19.615Z,97535.72
2023-09-17T13:46:00.175Z,97533.41
2023-09-17T13:48:27.956Z,97527.84
2023-09-17T13:50:58.813Z,97539.53
2023-09-17T13:53:25.688Z,97526.13
2023-09-17T13:55:52.477Z,97520.81
2023-09-17T13:58:19.234Z,97524.63
2023-09-17T14:00:49.020Z,97527.16
2023-09-17T14:03:18.603Z,97513.25
2023-09-17T14:05:48.670Z,97513.25
2023-09-17T14:08:15.261Z,97521.59
2023-09-17T14:10:43.093Z,97511.22
2023-09-17T14:13:09.643Z,97509.69
2023-09-17T14:15:37.943Z,97505.41
2023-09-17T14:18:06.434Z,97513.25
2023-09-17T14:20:33.010Z,97502.09
2023-09-17T14:22:59.615Z,97493.75
2023-09-17T14:25:35.227Z,97495.53
2023-09-17T14:28:04.064Z,97495.03
2023-09-17T14:30:35.088Z,97493.00
2023-09-17T14:33:02.272Z,97482.38
2023-09-17T14:35:29.222Z,97482.38
2023-09-17T14:37:55.819Z,97472.75
2023-09-17T14:40:24.226Z,97472.75
2023-09-17T14:42:50.777Z,97468.22
2023-09-17T14:45:17.630Z,97466.19
2023-09-17T14:47:54.456Z,97464.16
2023-09-17T14:50:21.658Z,97461.63
2023-09-17T14:52:48.202Z,97457.31
2023-09-17T14:55:19.008Z,97451.50
2023-09-17T14:57:45.495Z,97448.97
2023-09-17T15:00:15.541Z,97453.53
2023-09-17T15:02:47.420Z,97443.91
2023-09-17T15:05:14.168Z,97444.69
2023-09-17T15:07:42.922Z,97451.00
2023-09-17T15:10:12.150Z,97449.47
2023-09-17T15:12:41.084Z,97444.69
2023-09-17T15:15:07.787Z,97439.88
2023-09-17T15:17:36.253Z,97443.41
2023-09-17T15:20:03.078Z,97443.16
2023-09-17T15:22:29.756Z,97440.63
2023-09-17T15:24:58.231Z,97440.63
2023-09-17T15:27:24.746Z,97439.88
2023-09-17T15:29:51.240Z,97436.84
2023-09-17T15:32:17.940Z,97435.31
2023-09-17T15:34:46.977Z,97442.91
2023-09-17T15:37:13.591Z,97438.63
2023-09-17T15:39:42.326Z,97440.88
2023-09-17T15:42:08.966Z,97432.28
2023-09-17T15:44:35.609Z,97443.91
2023-09-17T15:47:03.319Z,97440.38
2023-09-17T15:49:30.246Z,97432.03
2023-09-17T15:51:56.867Z,97439.63
2023-09-17T15:54:29.384Z,97433.28
2023-09-17T15:56:57.808Z,97434.53
2023-09-17T15:59:24.389Z,97432.28
2023-09-17T16:01:52.795Z,97433.06
2023-09-17T16:04:19.596Z,97431.53
2023-09-17T16:06:46.246Z,97428.50
2023-09-17T16:09:19.393Z,97422.91
2023-09-17T16:11:46.229Z,97417.59
2023-09-17T16:14:13.943Z,97423.16
2023-09-17T16:16:42.329Z,97428.47
2023-09-17T16:19:08.910Z,97426.94
2023-09-17T16:21:35.753Z,97413.53
2023-09-17T16:24:04.354Z,97417.56
2023-09-17T16:26:32.316Z,97411.25
2023-09-17T16:29:00.938Z,97411.25
2023-09-17T16:31:28.214Z,97411.00
2023-09-17T16:33:55.339Z,97406.94
2023-09-17T16:36:22.177Z,97402.41
2023-09-17T16:38:48.795Z,97401.38
2023-09-17T16:41:15.506Z,97406.16
2023-09-17T16:43:42.285Z,97408.69
2023-09-17T16:46:13.737Z,97398.09
2023-09-17T16:48:40.372Z,97406.66
2023-09-17T16:51:06.949Z,97401.59
2023-09-17T16:53:35.293Z,97400.34
2023-09-17T16:56:01.842Z,97405.13
2023-09-17T16:58:31.865Z,97405.84
2023-09-17T17:01:09.449Z,97403.78
2023-09-17T17:03:36.603Z,97400.25
2023-09-17T17:06:03.341Z,97394.44
2023-09-17T17:08:30.035Z,97395.69
2023-09-17T17:10:57.881Z,97395.13
2023-09-17T17:13:24.518Z,97387.50
2023-09-17T17:15:52.898Z,97382.41
2023-09-17T17:18:19.443Z,97372.44
2023-09-17T17:20:46.064Z,97380.50
2023-09-17T17:23:21.196Z,97379.19
2023-09-17T17:25:47.834Z,97372.75
2023-09-17T17:28:14.507Z,97376.94
2023-09-17T17:30:42.776Z,97373.50
2023-09-17T17:33:09.350Z,97364.06
2023-09-17T17:35:39.455Z,97364.97
2023-09-17T17:38:06.146Z,97366.88
2023-09-17T17:40:33.288Z,97359.75
2023-09-17T17:42:59.834Z,97368.66
2023-09-17T17:45:28.290Z,97358.97
2023-09-17T17:47:55.335Z,97351.50
2023-09-17T17:50:22.899Z,97360.66
2023-09-17T17:52:51.380Z,97357.28
2023-09-17T17:55:18.043Z,97353.09
2023-09-17T17:57:44.872Z,97346.00
2023-09-17T18:00:12.099Z,97353.16
2023-09-17T18:02:40.597Z,97354.50
2023-09-17T18:05:07.776Z,97353.13
2023-09-17T18:07:36.811Z,97354.28
2023-09-17T18:10:08.215Z,97353.38
2023-09-17T18:12:35.607Z,97347.19
2023-09-17T18:15:03.636Z,97348.63
2023-09-17T18:17:30.740Z,97342.53
2023-09-17T18:20:15.517Z,97346.66
2023-09-17T18:22:44.356Z,97352.25
2023-09-17T18:25:10.949Z,97356.94
2023-09-17T18:27:40.606Z,97353.31
2023-09-17T18:30:07.563Z,97364.25
2023-09-17T18:32:35.074Z,97362.19
2023-09-17T18:35:08.391Z,97362.84
2023-09-17T18:37:35.165Z,97355.19
2023-09-17T18:40:01.700Z,97361.22
2023-09-17T18:42:32.446Z,97359.59
2023-09-17T18:44:58.968Z,97351.66
2023-09-17T18:47:30.880Z,97350.34
2023-09-17T18:49:57.606Z,97353.47
2023-09-17T18:52:25.677Z,97352.13
2023-09-17T18:54:52.365Z,97361.81
2023-09-17T18:57:19.058Z,97358.75
2023-09-17T18:59:46.049Z,97357.41
2023-09-17T19:02:12.659Z,97356.84
2023-09-17T19:04:41.371Z,97362.34
2023-09-17T19:07:08.024Z,97369.31
2023-09-17T19:09:34.642Z,97365.13
2023-09-17T19:12:07.838Z,97369.03
2023-09-17T19:14:47.620Z,97368.72
2023-09-17T19:17:18.665Z,97366.69
2023-09-17T19:19:45.320Z,97358.41
2023-09-17T19:22:11.956Z,97361.66
2023-09-17T19:24:38.688Z,97356.59
2023-09-17T19:27:05.572Z,97363.34
2023-09-17T19:29:35.868Z,97358.28
2023-09-17T19:32:02.836Z,97358.00
2023-09-17T19:34:29.620Z,97357.91
2023-09-17T19:36:56.831Z,97353.31
2023-09-17T19:39:25.156Z,97349.50
2023-09-17T19:41:51.897Z,97350.72
2023-09-17T19:44:18.714Z,97352.16
2023-09-17T19:46:47.940Z,97356.13
2023-09-17T19:49:14.519Z,97356.63
2023-09-17T19:51:41.145Z,97349.28
2023-09-17T19:54:13.952Z,97351.25
2023-09-17T19:56:40.489Z,97352.22
2023-09-17T19:59:07.005Z,97356.19
2023-09-17T20:01:35.395Z,97348.38
2023-09-17T20:04:02.152Z,97345.03
2023-09-17T20:06:43.642Z,97352.28
2023-09-17T20:09:22.085Z,97348.16
2023-09-17T20:11:49.264Z,97352.94
2023-09-17T20:14:16.011Z,97357.69
2023-09-17T20:16:42.719Z,97363.22
2023-09-17T20:19:09.351Z,97354.22
2023-09-17T20:21:35.905Z,97359.16
2023-09-17T20:24:04.251Z,97352.09
2023-09-17T20:26:30.847Z,97355.34
2023-09-17T20:28:59.609Z,97349.97
2023-09-17T20:31:33.894Z,97353.41
2023-09-17T20:34:00.894Z,97352.03
2023-09-17T20:36:27.525Z,97356.94
2023-09-17T20:39:07.161Z,97352.34
2023-09-17T20:41:34.291Z,97342.25
2023-09-17T20:44:00.981Z,97344.59
2023-09-17T20:46:29.239Z,97336.97
2023-09-17T20:49:00.090Z,97338.19
2023-09-17T20:51:27.009Z,97338.03
2023-09-17T20:53:54.062Z,97336.81
2023-09-17T20:56:21.298Z,97328.09
2023-09-17T20:58:48.849Z,97327.50
2023-09-17T21:01:27.356Z,97327.22
2023-09-17T21:03:56.797Z,97325.41
2023-09-17T21:06:23.472Z,97320.78
2023-09-17T21:08:55.676Z,97333.53
2023-09-17T21:11:22.209Z,97329.41
2023-09-17T21:13:53.470Z,97330.81
2023-09-17T21:16:20.154Z,97321.47
2023-09-17T21:18:47.589Z,97307.09
2023-09-17T21:21:14.391Z,97316.75
2023-09-17T21:23:42.820Z,97310.97
2023-09-17T21:26:10.726Z,97306.53
2023-09-17T21:28:37.518Z,97301.66
2023-09-17T21:31:06.539Z,97302.72
2023-09-17T21:33:33.145Z,97304.09
2023-09-17T21:36:02.245Z,97304.75
2023-09-17T21:38:30.651Z,97316.66
2023-09-17T21:40:57.330Z,97307.78
2023-09-17T21:43:23.931Z,97312.53
2023-09-17T21:45:50.574Z,97316.69
2023-09-17T21:48:20.547Z,97324.03
2023-09-17T21:50:47.115Z,97320.69
2023-09-17T21:53:15.476Z,97324.22
2023-09-17T21:55:42.116Z,97327.72
2023-09-17T21:58:08.729Z,97333.22
2023-09-17T22:00:38.685Z,97346.06
2023-09-17T22:03:05.334Z,97341.75
2023-09-17T22:05:32.129Z,97341.13
2023-09-17T22:07:59.338Z,97341.28
2023-09-17T22:10:25.908Z,97338.38
2023-09-17T22:12:52.568Z,97331.66
2023-09-17T22:15:21.494Z,97324.19
2023-09-17T22:17:48.096Z,97322.50
2023-09-17T22:20:19.891Z,97325.88
2023-09-17T22:22:46.990Z,97335.03
2023-09-17T22:25:15.879Z,97347.25
2023-09-17T22:27:42.472Z,97329.53
2023-09-17T22:30:09.658Z,97326.78
2023-09-17T22:32:37.196Z,97326.63
2023-09-17T22:35:09.496Z,97332.22
2023-09-17T22:37:50.520Z,97332.53
2023-09-17T22:40:19.197Z,97318.38
2023-09-17T22:42:45.701Z,97331.50
2023-09-17T22:45:12.450Z,97343.56
2023-09-17T22:47:39.640Z,97345.41
2023-09-17T22:50:10.947Z,97346.94
2023-09-17T22:52:37.507Z,97363.78
2023-09-17T22:55:04.509Z,97387.28
2023-09-17T22:57:31.063Z,97386.66
2023-09-17T22:59:57.619Z,97355.16
2023-09-17T23:02:26.272Z,97308.41
2023-09-17T23:04:53.062Z,97288.41
2023-09-17T23:07:20.315Z,97292.94
2023-09-17T23:09:53.430Z,97299.16
2023-09-17T23:12:19.964Z,97302.75
2023-09-17T23:14:46.685Z,97298.16
2023-09-17T23:17:15.536Z,97296.28
2023-09-17T23:19:43.944Z,97300.38
2023-09-17T23:22:10.510Z,97327.03
2023-09-17T23:24:37.128Z,97354.94
2023-09-17T23:27:03.933Z,97373.41
2023-09-17T23:29:30.737Z,97380.88
2023-09-17T23:31:59.631Z,97380.75
2023-09-17T23:34:26.340Z,97328.00
2023-09-17T23:36:52.863Z,97275.81
2023-09-17T23:39:23.896Z,97293.50
2023-09-17T23:41:51.122Z,97301.75
2023-09-17T23:44:17.754Z,97318.78
2023-09-17T23:46:46.460Z,97323.28
2023-09-17T23:49:13.052Z,97305.69
2023-09-17T23:51:41.988Z,97297.25
2023-09-17T23:54:10.307Z,97276.84
2023-09-17T23:56:38.085Z,97272.50
2023-09-17T23:59:04.740Z,97302.88
